createdAt,value
2022-08-07T00:00:25.554Z,16.61
2022-08-07T00:02:53.739Z,16.51
2022-08-07T00:05:23.713Z,16.40
2022-08-07T00:07:59.865Z,16.31
2022-08-07T00:10:29.770Z,16.22
2022-08-07T00:13:23.538Z,16.14
2022-08-07T00:15:52.662Z,16.08
2022-08-07T00:18:24.351Z,16.03
2022-08-07T00:20:54.893Z,15.97
2022-08-07T00:23:24.894Z,15.88
2022-08-07T00:26:00.188Z,15.76
2022-08-07T00:28:33.384Z,15.65
2022-08-07T00:31:12.764Z,15.56
2022-08-07T00:33:43.603Z,15.48
2022-08-07T00:36:14.539Z,15.40
2022-08-07T00:38:43.887Z,15.32
2022-08-07T00:41:14.675Z,15.22
2022-08-07T00:44:01.748Z,15.13
2022-08-07T00:46:32.816Z,15.00
2022-08-07T00:49:03.149Z,14.93
2022-08-07T00:51:58.368Z,14.85
2022-08-07T00:54:19.769Z,14.79
2022-08-07T00:56:49.571Z,14.78
2022-08-07T00:59:19.961Z,14.78
2022-08-07T01:01:48.655Z,14.79
2022-08-07T01:04:21.561Z,14.78
2022-08-07T01:06:52.132Z,14.75
2022-08-07T01:10:06.373Z,14.74
2022-08-07T01:12:28.147Z,14.74
2022-08-07T01:15:01.523Z,14.76
2022-08-07T01:17:32.344Z,14.78
2022-08-07T01:20:06.688Z,14.82
2022-08-07T01:22:46.471Z,14.84
2022-08-07T01:25:40.338Z,14.85
2022-08-07T01:28:09.007Z,14.83
2022-08-07T01:30:40.100Z,14.82
2022-08-07T01:33:10.037Z,14.82
2022-08-07T01:35:53.378Z,14.82
2022-08-07T01:38:25.131Z,14.85
2022-08-07T01:40:59.397Z,14.86
2022-08-07T01:43:34.677Z,14.86
2022-08-07T01:46:08.333Z,14.83
2022-08-07T01:48:46.805Z,14.78
2022-08-07T01:52:04.299Z,14.76
2022-08-07T01:54:32.490Z,14.73
2022-08-07T01:57:08.381Z,14.71
2022-08-07T01:59:46.125Z,14.69
2022-08-07T02:03:11.477Z,14.67
2022-08-07T02:05:15.985Z,14.62
2022-08-07T02:08:08.645Z,14.55
2022-08-07T02:10:42.290Z,14.49
2022-08-07T02:13:13.459Z,14.42
2022-08-07T02:15:53.287Z,14.39
2022-08-07T02:18:22.220Z,14.37
2022-08-07T02:20:55.920Z,14.34
2022-08-07T02:23:26.177Z,14.32
2022-08-07T02:26:31.043Z,14.30
2022-08-07T02:28:42.986Z,14.29
2022-08-07T02:31:18.872Z,14.27
2022-08-07T02:34:03.523Z,14.27
2022-08-07T02:36:41.458Z,14.26
2022-08-07T02:39:17.473Z,14.27
2022-08-07T02:42:02.682Z,14.27
2022-08-07T02:44:34.326Z,14.25
2022-08-07T02:47:05.260Z,14.25
2022-08-07T02:49:57.852Z,14.24
2022-08-07T02:52:30.958Z,14.24
2022-08-07T02:55:05.010Z,14.24
2022-08-07T02:57:55.615Z,14.23
2022-08-07T03:00:27.147Z,14.22
2022-08-07T03:02:58.804Z,14.19
2022-08-07T03:05:29.200Z,14.17
2022-08-07T03:08:10.523Z,14.15
2022-08-07T03:10:46.630Z,14.13
2022-08-07T03:13:19.771Z,14.12
2022-08-07T03:15:56.345Z,14.11
2022-08-07T03:18:34.728Z,14.09
2022-08-07T03:21:08.622Z,14.06
2022-08-07T03:24:19.246Z,14.04
2022-08-07T03:26:32.238Z,14.04
2022-08-07T03:29:04.202Z,14.05
2022-08-07T03:31:42.521Z,14.07
2022-08-07T03:34:18.198Z,14.08
2022-08-07T03:36:46.179Z,14.08
2022-08-07T03:39:18.005Z,14.06
2022-08-07T03:42:07.582Z,14.05
2022-08-07T03:44:38.046Z,14.05
2022-08-07T03:47:13.398Z,14.04
2022-08-07T03:49:47.719Z,14.04
2022-08-07T03:52:26.390Z,14.00
2022-08-07T03:55:07.171Z,13.98
2022-08-07T03:58:33.315Z,13.96
2022-08-07T04:00:29.372Z,13.95
2022-08-07T04:03:04.369Z,13.94
2022-08-07T04:05:41.037Z,13.94
2022-08-07T04:08:16.141Z,13.94
2022-08-07T04:10:54.276Z,13.98
2022-08-07T04:14:10.726Z,14.04
2022-08-07T04:16:31.196Z,14.09
2022-08-07T04:19:12.435Z,14.14
2022-08-07T04:21:59.526Z,14.22
2022-08-07T04:24:38.687Z,14.33
2022-08-07T04:27:15.121Z,14.42
2022-08-07T04:30:02.313Z,14.54
2022-08-07T04:32:39.341Z,14.63
2022-08-07T04:35:13.087Z,14.72
2022-08-07T04:38:02.789Z,14.80
2022-08-07T04:40:29.803Z,14.88
2022-08-07T04:43:01.675Z,14.94
2022-08-07T04:45:58.035Z,15.03
2022-08-07T04:48:38.185Z,15.09
2022-08-07T04:51:12.521Z,15.14
2022-08-07T04:54:05.348Z,15.20
2022-08-07T04:58:10.234Z,15.27
2022-08-07T05:00:09.920Z,15.47
2022-08-07T05:02:32.465Z,15.73
2022-08-07T05:05:11.484Z,16.00
2022-08-07T05:07:51.791Z,16.25
2022-08-07T05:10:42.931Z,16.47
2022-08-07T05:14:52.819Z,16.62
2022-08-07T05:16:07.978Z,16.77
2022-08-07T05:18:41.188Z,16.85
2022-08-07T05:21:10.659Z,16.88
2022-08-07T05:23:45.468Z,16.95
2022-08-07T05:26:23.818Z,17.10
2022-08-07T05:28:58.114Z,17.26
2022-08-07T05:31:35.048Z,17.40
2022-08-07T05:34:10.937Z,17.53
2022-08-07T05:36:44.150Z,17.61
2022-08-07T05:40:14.007Z,17.69
2022-08-07T05:42:13.406Z,17.86
2022-08-07T05:44:52.784Z,18.06
2022-08-07T05:47:37.857Z,18.27
2022-08-07T05:50:19.537Z,18.48
2022-08-07T05:52:47.591Z,18.70
2022-08-07T05:55:15.093Z,18.87
2022-08-07T05:57:46.245Z,19.03
2022-08-07T06:00:16.560Z,19.18
2022-08-07T06:02:51.820Z,19.35
2022-08-07T06:05:28.453Z,19.54
2022-08-07T06:08:29.475Z,19.78
2022-08-07T06:10:51.311Z,20.02
2022-08-07T06:13:20.902Z,20.12
2022-08-07T06:16:08.263Z,20.21
2022-08-07T06:18:39.826Z,20.34
2022-08-07T06:22:15.469Z,20.54
2022-08-07T06:24:45.762Z,20.79
2022-08-07T06:26:46.792Z,21.07
2022-08-07T06:29:14.487Z,21.27
2022-08-07T06:31:49.800Z,21.51
2022-08-07T06:34:20.421Z,21.78
2022-08-07T06:36:51.844Z,21.95
2022-08-07T06:40:16.130Z,22.06
2022-08-07T06:42:15.714Z,22.23
2022-08-07T06:44:54.762Z,22.40
2022-08-07T06:47:24.039Z,22.55
2022-08-07T06:49:58.592Z,22.81
2022-08-07T06:52:35.531Z,23.11
2022-08-07T06:55:33.714Z,23.28
2022-08-07T06:57:59.454Z,23.26
2022-08-07T07:00:32.307Z,23.09
2022-08-07T07:03:11.008Z,22.91
2022-08-07T07:06:04.151Z,22.63
2022-08-07T07:08:29.283Z,22.43
2022-08-07T07:10:57.879Z,22.24
2022-08-07T07:13:55.669Z,22.19
2022-08-07T07:16:30.019Z,22.08
2022-08-07T07:19:54.378Z,21.98
2022-08-07T07:22:05.138Z,22.05
2022-08-07T07:24:43.113Z,22.34
2022-08-07T07:27:28.007Z,22.39
2022-08-07T07:30:09.038Z,22.27
2022-08-07T07:32:42.706Z,22.16
2022-08-07T07:35:12.223Z,22.31
2022-08-07T07:37:52.621Z,22.58
2022-08-07T07:40:32.409Z,22.79
2022-08-07T07:43:11.568Z,23.15
2022-08-07T07:46:37.565Z,23.29
2022-08-07T07:48:36.050Z,23.28
2022-08-07T07:51:08.003Z,23.12
2022-08-07T07:53:51.289Z,23.00
2022-08-07T07:56:29.757Z,22.95
2022-08-07T07:59:01.705Z,22.89
2022-08-07T08:02:03.776Z,22.87
2022-08-07T08:04:20.246Z,23.13
2022-08-07T08:06:53.985Z,23.36
2022-08-07T08:09:29.528Z,23.39
2022-08-07T08:12:02.335Z,23.30
2022-08-07T08:14:34.328Z,23.08
2022-08-07T08:17:56.682Z,22.82
2022-08-07T08:20:18.714Z,22.53
2022-08-07T08:23:02.240Z,22.18
2022-08-07T08:25:49.023Z,21.86
2022-08-07T08:28:43.404Z,21.65
2022-08-07T08:31:22.837Z,21.54
2022-08-07T08:33:58.727Z,21.42
2022-08-07T08:36:30.250Z,21.36
2022-08-07T08:39:02.128Z,21.31
2022-08-07T08:41:57.123Z,21.23
2022-08-07T08:44:44.586Z,21.19
2022-08-07T08:47:22.211Z,21.20
2022-08-07T08:50:05.694Z,21.22
2022-08-07T08:52:51.576Z,21.23
2022-08-07T08:55:54.762Z,21.25
2022-08-07T08:58:43.305Z,21.33
2022-08-07T09:01:19.211Z,21.41
2022-08-07T09:04:07.256Z,21.46
2022-08-07T09:06:57.627Z,21.58
2022-08-07T09:09:42.799Z,21.71
2022-08-07T09:12:31.835Z,21.84
2022-08-07T09:16:21.759Z,22.01
2022-08-07T09:18:22.873Z,22.26
2022-08-07T09:21:13.910Z,22.51
2022-08-07T09:24:58.747Z,22.86
2022-08-07T09:28:00.757Z,23.23
2022-08-07T09:30:48.839Z,23.64
2022-08-07T09:33:57.956Z,24.00
2022-08-07T09:36:35.906Z,24.50
2022-08-07T09:39:53.083Z,24.89
2022-08-07T09:42:33.606Z,25.43
2022-08-07T09:47:24.104Z,25.81
2022-08-07T09:50:02.499Z,26.23
2022-08-07T09:52:10.190Z,26.71
2022-08-07T09:54:48.005Z,27.28
2022-08-07T09:57:46.860Z,27.79
2022-08-07T10:00:20.338Z,28.14
2022-08-07T10:04:06.153Z,28.24
2022-08-07T10:06:19.790Z,28.17
2022-08-07T10:09:08.734Z,28.16
2022-08-07T10:12:01.518Z,28.18
2022-08-07T10:14:31.991Z,28.31
2022-08-07T10:17:16.950Z,28.46
2022-08-07T10:19:53.067Z,28.60
2022-08-07T10:22:51.055Z,28.80
2022-08-07T10:25:52.967Z,29.02
2022-08-07T10:28:37.003Z,29.01
2022-08-07T10:31:21.277Z,28.93
2022-08-07T10:34:15.506Z,28.86
2022-08-07T10:36:58.539Z,28.76
2022-08-07T10:39:41.713Z,28.72
2022-08-07T10:42:37.362Z,28.66
2022-08-07T10:45:45.404Z,28.57
2022-08-07T10:48:20.032Z,28.48
2022-08-07T10:50:54.406Z,28.38
2022-08-07T10:53:44.883Z,28.34
2022-08-07T10:56:37.129Z,28.33
2022-08-07T10:59:06.858Z,28.20
2022-08-07T11:01:52.060Z,28.04
2022-08-07T11:04:46.302Z,28.03
2022-08-07T11:07:58.833Z,28.10
2022-08-07T11:10:27.534Z,28.16
2022-08-07T11:13:02.833Z,28.16
2022-08-07T11:15:35.622Z,28.02
2022-08-07T11:18:14.188Z,27.90
2022-08-07T11:20:49.323Z,27.90
2022-08-07T11:23:30.739Z,27.94
2022-08-07T11:26:25.579Z,28.00
2022-08-07T11:29:05.729Z,27.94
2022-08-07T11:31:56.631Z,27.93
2022-08-07T11:34:40.979Z,27.95
2022-08-07T11:37:38.473Z,28.02
2022-08-07T11:40:36.118Z,28.06
2022-08-07T11:43:15.366Z,28.18
2022-08-07T11:46:14.064Z,28.32
2022-08-07T11:49:50.267Z,28.33
2022-08-07T11:52:19.221Z,28.22
2022-08-07T11:56:15.658Z,28.35
2022-08-07T11:58:33.416Z,28.44
2022-08-07T12:01:20.124Z,28.40
2022-08-07T12:04:12.105Z,28.36
2022-08-07T12:06:50.897Z,28.25
2022-08-07T12:09:29.065Z,28.16
2022-08-07T12:12:10.913Z,28.14
2022-08-07T12:14:55.999Z,28.15
2022-08-07T12:17:38.238Z,28.30
2022-08-07T12:20:26.310Z,28.43
2022-08-07T12:23:01.854Z,28.44
2022-08-07T12:26:21.393Z,28.49
2022-08-07T12:28:49.798Z,28.53
2022-08-07T12:31:52.905Z,28.60
2022-08-07T12:34:34.843Z,28.60
2022-08-07T12:37:08.291Z,28.52
2022-08-07T12:39:50.818Z,28.41
2022-08-07T12:42:27.815Z,28.33
2022-08-07T12:44:58.131Z,28.17
2022-08-07T12:47:37.522Z,28.09
2022-08-07T12:50:38.078Z,28.06
2022-08-07T12:53:29.337Z,27.85
2022-08-07T12:56:22.102Z,27.66
2022-08-07T12:58:56.893Z,27.62
2022-08-07T13:01:40.236Z,27.68
2022-08-07T13:04:34.589Z,27.79
2022-08-07T13:08:12.136Z,27.93
2022-08-07T13:10:39.846Z,28.12
2022-08-07T13:13:48.535Z,28.13
2022-08-07T13:16:36.745Z,28.28
2022-08-07T13:19:34.887Z,28.57
2022-08-07T13:22:27.577Z,28.81
2022-08-07T13:25:03.085Z,28.93
2022-08-07T13:28:11.127Z,29.10
2022-08-07T13:30:41.399Z,29.33
2022-08-07T13:34:33.648Z,29.48
2022-08-07T13:36:25.728Z,29.62
2022-08-07T13:39:49.749Z,29.48
2022-08-07T13:42:19.286Z,29.33
2022-08-07T13:44:55.511Z,29.21
2022-08-07T13:48:07.819Z,29.00
2022-08-07T13:50:32.956Z,28.82
2022-08-07T13:53:21.955Z,28.68
2022-08-07T13:55:54.587Z,28.49
2022-08-07T13:58:40.762Z,28.35
2022-08-07T14:01:13.195Z,28.18
2022-08-07T14:04:07.216Z,28.01
2022-08-07T14:06:34.460Z,27.82
2022-08-07T14:09:04.666Z,27.72
2022-08-07T14:12:00.291Z,27.63
2022-08-07T14:14:43.629Z,27.54
2022-08-07T14:18:13.193Z,27.33
2022-08-07T14:20:40.473Z,27.06
2022-08-07T14:23:09.219Z,26.82
2022-08-07T14:25:47.931Z,26.58
2022-08-07T14:28:18.143Z,26.40
2022-08-07T14:30:52.294Z,26.28
2022-08-07T14:33:22.356Z,26.20
2022-08-07T14:35:55.842Z,26.04
2022-08-07T14:41:18.286Z,25.81
2022-08-07T14:44:11.926Z,25.68
2022-08-07T14:46:51.729Z,25.71
2022-08-07T14:52:12.244Z,25.93
2022-08-07T14:54:44.876Z,26.07
2022-08-07T14:57:19.711Z,26.21
2022-08-07T15:00:04.310Z,26.38
2022-08-07T15:02:36.861Z,26.55
2022-08-07T15:07:52.824Z,26.70
2022-08-07T15:10:26.825Z,26.67
2022-08-07T15:12:58.180Z,26.65
2022-08-07T15:15:38.482Z,26.54
2022-08-07T15:18:14.332Z,26.37
2022-08-07T15:21:03.823Z,26.16
2022-08-07T15:25:14.386Z,25.96
2022-08-07T15:26:42.993Z,25.75
2022-08-07T15:30:09.322Z,25.60
2022-08-07T15:32:04.864Z,25.48
2022-08-07T15:34:50.813Z,25.32
2022-08-07T15:37:29.162Z,25.09
2022-08-07T15:40:34.243Z,24.84
2022-08-07T15:49:15.213Z,24.25
2022-08-07T15:54:34.138Z,24.02
2022-08-07T15:57:02.907Z,23.90
2022-08-07T15:59:39.122Z,23.79
2022-08-07T16:02:08.659Z,23.69
2022-08-07T16:04:37.953Z,23.60
2022-08-07T16:08:29.047Z,23.52
2022-08-07T16:10:08.719Z,23.45
2022-08-07T16:13:18.028Z,23.36
2022-08-07T16:15:59.632Z,23.28
2022-08-07T16:18:49.584Z,23.23
2022-08-07T16:21:57.147Z,23.21
2022-08-07T16:24:34.201Z,23.19
2022-08-07T16:27:18.007Z,23.20
2022-08-07T16:30:10.583Z,23.23
2022-08-07T16:32:46.317Z,23.27
2022-08-07T16:35:56.591Z,23.29
2022-08-07T16:38:59.971Z,23.32
2022-08-07T16:41:18.339Z,23.32
2022-08-07T16:44:08.611Z,23.30
2022-08-07T16:47:27.333Z,23.23
2022-08-07T16:50:20.024Z,23.13
2022-08-07T16:54:02.639Z,23.02
2022-08-07T16:56:10.560Z,22.84
2022-08-07T16:59:10.866Z,22.75
2022-08-07T17:02:09.106Z,22.65
2022-08-07T17:04:51.086Z,22.52
2022-08-07T17:07:53.827Z,22.40
2022-08-07T17:10:32.403Z,22.28
2022-08-07T17:13:23.772Z,22.17
2022-08-07T17:16:17.163Z,22.06
2022-08-07T17:19:15.572Z,21.95
2022-08-07T17:21:51.500Z,21.84
2022-08-07T17:24:54.587Z,21.75
2022-08-07T17:27:39.896Z,21.64
2022-08-07T17:30:20.295Z,21.53
2022-08-07T17:34:08.526Z,21.42
2022-08-07T17:36:12.039Z,21.31
2022-08-07T17:39:10.379Z,21.20
2022-08-07T17:42:02.023Z,21.08
2022-08-07T17:44:50.119Z,20.94
2022-08-07T17:47:38.133Z,20.81
2022-08-07T17:50:16.725Z,20.67
2022-08-07T17:52:51.304Z,20.55
2022-08-07T17:56:00.902Z,20.43
2022-08-07T17:58:31.099Z,20.27
2022-08-07T18:01:02.910Z,20.14
2022-08-07T18:04:06.836Z,20.00
2022-08-07T18:06:42.997Z,19.85
2022-08-07T18:09:16.919Z,19.71
2022-08-07T18:12:16.800Z,19.58
2022-08-07T18:14:38.274Z,19.43
2022-08-07T18:18:33.059Z,19.29
2022-08-07T18:21:10.316Z,19.10
2022-08-07T18:23:43.307Z,18.91
2022-08-07T18:26:20.075Z,18.73
2022-08-07T18:28:58.193Z,18.53
2022-08-07T18:31:50.076Z,18.37
2022-08-07T18:34:39.235Z,18.17
2022-08-07T18:38:57.382Z,17.96
2022-08-07T18:40:42.819Z,17.74
2022-08-07T18:43:49.106Z,17.53
2022-08-07T18:46:29.372Z,17.32
2022-08-07T18:50:31.465Z,17.12
2022-08-07T18:52:37.675Z,16.93
2022-08-07T18:55:55.767Z,16.75
2022-08-07T18:58:39.630Z,16.60
2022-08-07T19:02:18.899Z,16.45
2022-08-07T19:04:09.344Z,16.35
2022-08-07T19:06:56.442Z,16.24
2022-08-07T19:09:57.593Z,16.11
2022-08-07T19:12:57.812Z,15.95
2022-08-07T19:16:05.472Z,15.82
2022-08-07T19:18:34.023Z,15.66
2022-08-07T19:21:44.358Z,15.52
2022-08-07T19:24:02.449Z,15.38
2022-08-07T19:27:09.361Z,15.29
2022-08-07T19:31:04.084Z,15.20
2022-08-07T19:32:28.838Z,15.13
2022-08-07T19:35:12.712Z,15.06
2022-08-07T19:37:56.874Z,15.00
2022-08-07T19:40:30.933Z,14.91
2022-08-07T19:43:02.398Z,14.80
2022-08-07T19:46:09.359Z,14.70
2022-08-07T19:48:30.841Z,14.56
2022-08-07T19:51:19.351Z,14.44
2022-08-07T19:54:29.542Z,14.35
2022-08-07T19:57:52.037Z,14.29
2022-08-07T19:59:40.939Z,14.25
2022-08-07T20:02:19.533Z,14.20
2022-08-07T20:04:50.351Z,14.12
2022-08-07T20:07:48.083Z,14.05
2022-08-07T20:10:35.952Z,13.96
2022-08-07T20:13:22.929Z,13.86
2022-08-07T20:15:54.209Z,13.77
2022-08-07T20:18:33.559Z,13.69
2022-08-07T20:21:21.168Z,13.64
2022-08-07T20:24:01.123Z,13.60
2022-08-07T20:26:38.539Z,13.54
2022-08-07T20:29:48.180Z,13.48
2022-08-07T20:32:06.466Z,13.42
2022-08-07T20:34:50.658Z,13.34
2022-08-07T20:37:55.616Z,13.25
2022-08-07T20:40:32.280Z,13.18
2022-08-07T20:43:02.932Z,13.14
2022-08-07T20:46:26.611Z,13.13
2022-08-07T20:48:29.522Z,13.12
2022-08-07T20:51:00.699Z,13.10
2022-08-07T20:54:03.533Z,13.09
2022-08-07T20:56:26.104Z,13.08
2022-08-07T20:58:58.630Z,13.04
2022-08-07T21:01:29.673Z,13.02
2022-08-07T21:04:21.685Z,13.02
2022-08-07T21:06:53.535Z,13.03
2022-08-07T21:09:28.621Z,13.04
2022-08-07T21:12:15.254Z,13.05
2022-08-07T21:15:01.314Z,13.04
2022-08-07T21:18:20.243Z,13.03
2022-08-07T21:20:30.400Z,12.99
2022-08-07T21:23:08.530Z,12.95
2022-08-07T21:25:56.423Z,12.94
2022-08-07T21:28:49.900Z,12.96
2022-08-07T21:32:43.124Z,12.99
2022-08-07T21:34:32.265Z,13.03
2022-08-07T21:37:08.839Z,13.03
2022-08-07T21:39:59.808Z,13.02
2022-08-07T21:42:56.119Z,12.99
2022-08-07T21:46:09.101Z,12.91
2022-08-07T21:48:42.373Z,12.81
2022-08-07T21:51:25.850Z,12.72
2022-08-07T21:54:00.845Z,12.66
2022-08-07T21:56:52.023Z,12.62
2022-08-07T22:00:02.945Z,12.59
2022-08-07T22:02:27.932Z,12.55
2022-08-07T22:05:00.463Z,12.48
2022-08-07T22:07:48.804Z,12.41
2022-08-07T22:10:24.539Z,12.30
2022-08-07T22:13:02.933Z,12.21
2022-08-07T22:16:38.482Z,12.15
2022-08-07T22:18:43.307Z,12.11
2022-08-07T22:21:21.890Z,12.08
2022-08-07T22:24:09.385Z,12.05
2022-08-07T22:26:51.302Z,11.99
2022-08-07T22:29:37.785Z,11.92
2022-08-07T22:32:43.872Z,11.84
2022-08-07T22:35:11.614Z,11.76
2022-08-07T22:38:09.978Z,11.69
2022-08-07T22:41:09.053Z,11.63
2022-08-07T22:43:42.667Z,11.56
2022-08-07T22:47:03.809Z,11.50
2022-08-07T22:49:23.413Z,11.43
2022-08-07T22:52:11.123Z,11.36
2022-08-07T22:55:14.861Z,11.31
2022-08-07T22:58:06.491Z,11.27
2022-08-07T23:00:41.044Z,11.25
2022-08-07T23:03:10.969Z,11.22
2022-08-07T23:06:09.742Z,11.18
2022-08-07T23:08:58.578Z,11.13
2022-08-07T23:11:59.339Z,11.07
2022-08-07T23:14:49.598Z,10.99
2022-08-07T23:17:41.960Z,10.94
2022-08-07T23:20:51.648Z,10.89
2022-08-07T23:24:06.156Z,10.87
2022-08-07T23:26:23.342Z,10.85
2022-08-07T23:29:43.769Z,10.83
2022-08-07T23:34:21.524Z,10.78
2022-08-07T23:35:18.382Z,10.73
2022-08-07T23:38:19.247Z,10.69
2022-08-07T23:41:19.788Z,10.66
2022-08-07T23:44:12.980Z,10.65
2022-08-07T23:46:53.053Z,10.62
2022-08-07T23:49:50.130Z,10.59
2022-08-07T23:53:02.037Z,10.55
2022-08-07T23:55:53.635Z,10.49
2022-08-07T23:58:26.498Z,10.47
